Time;durP1;ratioP1;P1;durP2;ratioP2;P2;SDS_P1;SDS_P2;PMS_P1;PMS_P2;Temp;Humidity;BMP_temperature;BMP_pressure;BME280_temperature;BME280_humidity;BME280_pressure;Samples;Min_cycle;Max_cycle;Signal;HPM_P1;HPM_P2
2021/07/22 00:02:06;;;;;;;29.55;17.75;;;;;;;;;;5018424;28;20190;-68
2021/07/22 00:04:32;;;;;;;28.85;18.45;;;;;;;;;;5025857;28;20548;-68
2021/07/22 00:06:57;;;;;;;29.23;19.70;;;;;;;;;;5016129;28;20197;-68
2021/07/22 00:09:22;;;;;;;27.98;18.25;;;;;;;;;;5025688;28;20287;-68
2021/07/22 00:11:48;;;;;;;28.55;18.80;;;;;;;;;;5015945;28;20535;-68
2021/07/22 00:14:14;;;;;;;27.80;18.48;;;;;;;;;;5024962;28;20197;-68
2021/07/22 00:16:40;;;;;;;25.42;17.55;;;;;;;;;;5020908;28;20213;-68
2021/07/22 00:19:05;;;;;;;28.25;17.73;;;;;;;;;;5014380;28;20214;-68
2021/07/22 00:21:30;;;;;;;29.20;18.48;;;;;;;;;;5022366;28;20178;-68
2021/07/22 00:23:56;;;;;;;28.65;19.13;;;;;;;;;;5013867;28;20748;-68
2021/07/22 00:26:21;;;;;;;31.85;20.02;;;;;;;;;;5018030;28;20197;-68
2021/07/22 00:28:46;;;;;;;28.98;20.20;;;;;;;;;;5013255;28;20738;-68
2021/07/22 00:31:12;;;;;;;34.50;21.10;;;;;;;;;;5025772;28;20178;-68
2021/07/22 00:33:37;;;;;;;31.67;20.30;;;;;;;;;;5018780;28;20213;-68
2021/07/22 00:36:09;;;;;;;33.03;20.50;;;;;;;;;;5024132;28;20260;-68
2021/07/22 00:38:35;;;;;;;30.65;20.52;;;;;;;;;;5010870;28;20585;-68
2021/07/22 00:41:00;;;;;;;29.00;19.10;;;;;;;;;;5023151;28;20185;-68
2021/07/22 00:43:26;;;;;;;29.35;19.63;;;;;;;;;;5014731;28;20596;-68
2021/07/22 00:45:51;;;;;;;32.22;20.60;;;;;;;;;;5026380;28;20182;-68
2021/07/22 00:48:17;;;;;;;33.92;21.45;;;;;;;;;;5020733;28;20208;-68
2021/07/22 00:50:42;;;;;;;33.22;20.27;;;;;;;;;;5015976;28;20702;-68
2021/07/22 00:53:07;;;;;;;36.28;22.13;;;;;;;;;;5019693;28;20674;-68
2021/07/22 00:55:33;;;;;;;31.85;20.50;;;;;;;;;;5017269;28;20189;-68
2021/07/22 00:57:58;;;;;;;35.85;21.15;;;;;;;;;;5021812;28;20190;-68
2021/07/22 01:00:24;;;;;;;38.95;22.23;;;;;;;;;;5015155;28;20233;-69
2021/07/22 01:02:49;;;;;;;34.38;21.60;;;;;;;;;;5025694;28;20248;-68
2021/07/22 01:05:14;;;;;;;39.72;23.38;;;;;;;;;;5027657;28;20197;-68
2021/07/22 01:07:40;;;;;;;36.00;22.98;;;;;;;;;;5016582;28;20262;-68
2021/07/22 01:10:06;;;;;;;39.42;23.42;;;;;;;;;;5012786;28;20220;-68
2021/07/22 01:12:32;;;;;;;34.88;23.85;;;;;;;;;;5016856;28;20205;-68
2021/07/22 01:14:57;;;;;;;39.95;23.63;;;;;;;;;;5020901;28;20531;-68
2021/07/22 01:17:43;;;;;;;41.45;22.15;;;;;;;;;;5017990;28;20202;-68
2021/07/22 01:20:11;;;;;;;39.47;23.67;;;;;;;;;;5023068;28;20644;-68
2021/07/22 01:22:36;;;;;;;34.63;22.25;;;;;;;;;;5019487;28;20212;-68
2021/07/22 01:25:02;;;;;;;33.08;22.48;;;;;;;;;;5024530;28;20693;-68
2021/07/22 01:27:27;;;;;;;33.67;21.92;;;;;;;;;;5014028;28;20216;-68
2021/07/22 01:29:52;;;;;;;34.67;22.05;;;;;;;;;;5025934;28;20555;-68
2021/07/22 01:32:18;;;;;;;35.78;22.25;;;;;;;;;;5013959;28;20187;-68
2021/07/22 01:34:43;;;;;;;33.70;22.17;;;;;;;;;;5020204;28;20183;-68
2021/07/22 01:37:08;;;;;;;37.85;22.92;;;;;;;;;;5013106;28;20258;-68
2021/07/22 01:39:34;;;;;;;35.97;23.50;;;;;;;;;;5034558;28;20196;-68
2021/07/22 01:41:59;;;;;;;33.88;22.33;;;;;;;;;;5014337;28;20194;-68
2021/07/22 01:44:25;;;;;;;40.80;23.92;;;;;;;;;;5025015;28;20223;-68
2021/07/22 01:46:50;;;;;;;37.38;23.40;;;;;;;;;;5013974;28;20566;-68
2021/07/22 01:49:15;;;;;;;39.50;23.73;;;;;;;;;;5020520;28;20262;-68
2021/07/22 01:51:41;;;;;;;40.58;24.63;;;;;;;;;;5021788;28;20236;-68
2021/07/22 01:54:06;;;;;;;35.10;23.33;;;;;;;;;;5020158;28;20229;-68
2021/07/22 01:56:31;;;;;;;39.63;24.42;;;;;;;;;;5018822;28;20190;-68
2021/07/22 01:58:57;;;;;;;41.60;23.23;;;;;;;;;;5010740;28;20195;-68
2021/07/22 02:01:22;;;;;;;40.88;25.05;;;;;;;;;;5017011;28;20217;-68
2021/07/22 02:03:48;;;;;;;38.85;24.55;;;;;;;;;;5020833;28;20213;-68
2021/07/22 02:06:15;;;;;;;46.72;26.27;;;;;;;;;;5021827;28;20273;-68
2021/07/22 02:08:40;;;;;;;43.00;24.70;;;;;;;;;;5013104;28;20564;-68
2021/07/22 02:11:05;;;;;;;39.13;25.40;;;;;;;;;;5019810;28;20191;-68
2021/07/22 02:13:31;;;;;;;40.67;25.33;;;;;;;;;;5019533;28;20212;-68
2021/07/22 02:15:56;;;;;;;45.67;26.17;;;;;;;;;;5023267;28;20283;-68
2021/07/22 02:18:22;;;;;;;48.05;26.85;;;;;;;;;;5022427;28;20237;-68
2021/07/22 02:20:47;;;;;;;41.78;25.60;;;;;;;;;;5024689;28;20202;-68
2021/07/22 02:23:13;;;;;;;46.10;26.98;;;;;;;;;;5026570;28;20210;-68
2021/07/22 02:25:38;;;;;;;44.00;26.65;;;;;;;;;;5017275;28;20186;-68
2021/07/22 02:28:04;;;;;;;40.72;26.52;;;;;;;;;;5025157;28;20183;-68
2021/07/22 02:30:30;;;;;;;44.55;26.75;;;;;;;;;;5010898;28;20638;-68
2021/07/22 02:32:55;;;;;;;41.47;26.13;;;;;;;;;;5031291;28;20534;-68
2021/07/22 02:35:20;;;;;;;45.75;27.00;;;;;;;;;;5014460;28;20716;-68
2021/07/22 02:37:46;;;;;;;45.88;27.05;;;;;;;;;;5026639;28;20179;-68
2021/07/22 02:40:12;;;;;;;49.63;27.45;;;;;;;;;;5006038;28;20208;-68
2021/07/22 02:42:37;;;;;;;47.50;26.63;;;;;;;;;;5029845;28;20677;-68
2021/07/22 02:45:05;;;;;;;49.20;26.83;;;;;;;;;;5013108;28;20219;-68
2021/07/22 02:47:30;;;;;;;40.53;26.63;;;;;;;;;;5031548;28;20174;-68
2021/07/22 02:49:55;;;;;;;48.33;26.48;;;;;;;;;;5017408;28;21909;-68
2021/07/22 02:52:21;;;;;;;42.80;25.15;;;;;;;;;;5030551;28;20205;-68
2021/07/22 02:54:46;;;;;;;45.50;25.88;;;;;;;;;;5024752;28;20237;-68
2021/07/22 02:57:11;;;;;;;44.20;25.88;;;;;;;;;;5016665;28;20194;-68
2021/07/22 02:59:37;;;;;;;40.17;24.48;;;;;;;;;;5024169;28;20209;-68
2021/07/22 03:02:02;;;;;;;42.17;25.52;;;;;;;;;;5014192;28;20194;-68
2021/07/22 03:04:30;;;;;;;44.42;25.75;;;;;;;;;;5027287;28;20213;-68
2021/07/22 03:06:55;;;;;;;43.80;25.27;;;;;;;;;;5017101;28;20190;-68
2021/07/22 03:09:20;;;;;;;42.45;25.55;;;;;;;;;;5024359;28;20182;-68
2021/07/22 03:11:45;;;;;;;40.78;25.48;;;;;;;;;;5021030;28;20182;-68
2021/07/22 03:14:11;;;;;;;36.42;24.83;;;;;;;;;;5019691;28;20197;-68
2021/07/22 03:16:36;;;;;;;39.10;24.67;;;;;;;;;;5022191;28;20190;-68
2021/07/22 03:19:02;;;;;;;39.30;23.77;;;;;;;;;;5022317;28;20178;-68
2021/07/22 03:21:27;;;;;;;41.33;25.02;;;;;;;;;;5017394;28;20182;-68
2021/07/22 03:23:52;;;;;;;40.10;24.95;;;;;;;;;;5022880;28;20198;-68
2021/07/22 03:26:18;;;;;;;44.58;25.55;;;;;;;;;;5020628;28;20186;-68
2021/07/22 03:28:44;;;;;;;41.90;24.48;;;;;;;;;;5013135;28;20191;-68
2021/07/22 03:31:10;;;;;;;37.97;25.08;;;;;;;;;;5027375;28;20185;-68
2021/07/22 03:33:35;;;;;;;35.95;24.02;;;;;;;;;;5014579;28;20191;-68
2021/07/22 03:36:02;;;;;;;39.90;24.33;;;;;;;;;;5025424;28;20194;-68
2021/07/22 03:38:28;;;;;;;41.42;24.27;;;;;;;;;;5013651;28;20178;-68
2021/07/22 03:40:53;;;;;;;39.00;23.75;;;;;;;;;;5026482;28;20657;-68
2021/07/22 03:43:19;;;;;;;36.97;24.65;;;;;;;;;;5012127;28;20221;-68
2021/07/22 03:45:44;;;;;;;40.03;22.55;;;;;;;;;;5020680;28;20730;-68
2021/07/22 03:48:12;;;;;;;38.38;23.35;;;;;;;;;;5013258;28;20194;-68
2021/07/22 03:50:37;;;;;;;38.72;24.92;;;;;;;;;;5025472;28;20538;-68
2021/07/22 03:53:03;;;;;;;35.95;23.40;;;;;;;;;;5011763;28;20210;-68
2021/07/22 03:55:29;;;;;;;39.80;24.20;;;;;;;;;;5019635;28;20190;-68
2021/07/22 03:57:56;;;;;;;38.22;23.73;;;;;;;;;;5015293;28;20185;-68
2021/07/22 04:00:22;;;;;;;40.78;24.27;;;;;;;;;;5034224;28;20193;-68
2021/07/22 04:02:47;;;;;;;41.38;23.90;;;;;;;;;;5019170;28;20615;-68
2021/07/22 04:05:12;;;;;;;37.28;23.63;;;;;;;;;;5013514;28;20194;-68
2021/07/22 04:07:38;;;;;;;45.00;24.63;;;;;;;;;;5020170;28;20653;-68
2021/07/22 04:10:03;;;;;;;38.83;24.15;;;;;;;;;;5015018;28;20554;-68
2021/07/22 04:12:29;;;;;;;37.00;23.38;;;;;;;;;;5020112;28;20190;-68
2021/07/22 04:14:55;;;;;;;33.90;22.50;;;;;;;;;;5018065;28;20193;-68
2021/07/22 04:17:20;;;;;;;39.65;24.20;;;;;;;;;;5019284;28;20217;-68
2021/07/22 04:19:45;;;;;;;38.65;24.70;;;;;;;;;;5023147;28;20201;-68
2021/07/22 04:22:11;;;;;;;36.28;22.50;;;;;;;;;;5019086;28;20704;-68
2021/07/22 04:24:37;;;;;;;36.22;23.38;;;;;;;;;;5015116;28;20540;-68
2021/07/22 04:27:04;;;;;;;39.55;24.05;;;;;;;;;;5020581;28;20273;-68
2021/07/22 04:29:29;;;;;;;38.17;22.77;;;;;;;;;;5013789;28;20193;-68
2021/07/22 04:31:55;;;;;;;38.40;23.05;;;;;;;;;;5023976;28;21015;-68
2021/07/22 04:34:20;;;;;;;38.00;23.50;;;;;;;;;;5027849;28;20190;-68
2021/07/22 04:36:45;;;;;;;36.50;23.80;;;;;;;;;;5013038;28;20193;-68
2021/07/22 04:39:10;;;;;;;35.45;23.13;;;;;;;;;;5025806;28;20257;-67
2021/07/22 04:41:37;;;;;;;40.30;23.35;;;;;;;;;;5013873;28;20285;-67
2021/07/22 04:44:02;;;;;;;35.40;23.40;;;;;;;;;;5024674;28;20194;-67
2021/07/22 04:46:27;;;;;;;37.20;23.42;;;;;;;;;;5007548;28;20595;-67
2021/07/22 04:48:53;;;;;;;37.38;23.77;;;;;;;;;;5029603;28;20178;-68
2021/07/22 04:51:18;;;;;;;42.95;27.55;;;;;;;;;;5008757;28;20491;-67
2021/07/22 04:53:43;;;;;;;40.42;26.25;;;;;;;;;;5026974;28;20311;-68
2021/07/22 04:56:09;;;;;;;39.53;24.48;;;;;;;;;;5012479;28;20185;-67
2021/07/22 04:58:34;;;;;;;36.80;23.75;;;;;;;;;;5025658;28;20546;-67
2021/07/22 05:01:02;;;;;;;38.22;24.85;;;;;;;;;;5010793;28;20753;-67
2021/07/22 05:03:28;;;;;;;40.83;23.95;;;;;;;;;;5026624;28;20285;-67
2021/07/22 05:05:53;;;;;;;36.88;24.65;;;;;;;;;;5023745;28;20277;-67
2021/07/22 05:08:18;;;;;;;36.10;23.02;;;;;;;;;;5015817;28;20269;-67
2021/07/22 05:10:44;;;;;;;40.10;23.95;;;;;;;;;;5020879;28;20194;-67
2021/07/22 05:13:11;;;;;;;36.20;24.08;;;;;;;;;;5014186;28;20186;-67
2021/07/22 05:15:36;;;;;;;37.65;23.23;;;;;;;;;;5021745;28;20276;-67
2021/07/22 05:18:02;;;;;;;35.70;22.83;;;;;;;;;;5013431;28;20277;-67
2021/07/22 05:20:27;;;;;;;37.75;23.52;;;;;;;;;;5017683;28;20187;-67
2021/07/22 05:22:52;;;;;;;47.35;23.88;;;;;;;;;;5018647;28;20204;-67
2021/07/22 05:25:18;;;;;;;35.38;23.30;;;;;;;;;;5018077;28;20194;-67
2021/07/22 05:27:43;;;;;;;36.80;22.77;;;;;;;;;;5012034;28;20214;-67
2021/07/22 05:30:09;;;;;;;36.28;21.33;;;;;;;;;;5020839;28;20617;-67
2021/07/22 05:32:34;;;;;;;33.30;22.38;;;;;;;;;;5022680;28;20238;-67
2021/07/22 05:35:00;;;;;;;35.35;21.15;;;;;;;;;;5019111;28;20212;-67
2021/07/22 05:37:25;;;;;;;31.90;21.80;;;;;;;;;;5020637;28;20684;-67
2021/07/22 05:39:50;;;;;;;28.55;21.00;;;;;;;;;;5010060;28;20697;-66
2021/07/22 05:42:16;;;;;;;32.05;21.13;;;;;;;;;;5026929;28;20268;-67
2021/07/22 05:44:42;;;;;;;31.85;21.15;;;;;;;;;;5013845;28;20689;-67
2021/07/22 05:47:08;;;;;;;31.83;20.90;;;;;;;;;;5015668;28;20561;-67
2021/07/22 05:49:33;;;;;;;29.90;19.80;;;;;;;;;;5013248;28;20190;-67
2021/07/22 05:51:59;;;;;;;31.08;19.48;;;;;;;;;;5026669;28;20178;-67
2021/07/22 05:54:25;;;;;;;34.30;20.42;;;;;;;;;;5018609;28;20232;-67
2021/07/22 05:56:50;;;;;;;33.28;20.67;;;;;;;;;;5025395;28;20189;-67
2021/07/22 05:59:15;;;;;;;26.00;18.60;;;;;;;;;;5014698;28;20580;-67
2021/07/22 06:01:40;;;;;;;24.48;17.42;;;;;;;;;;5032468;28;20182;-67
2021/07/22 06:04:06;;;;;;;26.52;18.30;;;;;;;;;;5021823;28;20253;-67
2021/07/22 06:06:34;;;;;;;32.72;18.10;;;;;;;;;;5019701;28;20281;-67
2021/07/22 06:09:01;;;;;;;27.23;18.15;;;;;;;;;;5023679;28;20826;-67
2021/07/22 06:11:26;;;;;;;28.63;18.38;;;;;;;;;;5011038;28;20252;-67
2021/07/22 06:13:51;;;;;;;27.48;16.50;;;;;;;;;;5026905;28;20181;-67
2021/07/22 06:16:17;;;;;;;22.60;16.75;;;;;;;;;;5017106;28;20700;-67
2021/07/22 06:18:42;;;;;;;24.85;15.68;;;;;;;;;;5026200;28;20193;-67
2021/07/22 06:21:15;;;;;;;22.90;15.90;;;;;;;;;;5012008;28;20198;-67
2021/07/22 06:23:41;;;;;;;21.50;15.43;;;;;;;;;;5021954;28;20285;-67
2021/07/22 06:26:07;;;;;;;24.48;16.15;;;;;;;;;;5010347;28;20245;-67
2021/07/22 06:28:32;;;;;;;22.45;14.52;;;;;;;;;;5029561;28;20181;-67
2021/07/22 06:30:57;;;;;;;21.25;14.65;;;;;;;;;;5018361;28;20198;-67
2021/07/22 06:33:23;;;;;;;21.58;14.73;;;;;;;;;;5029354;28;20187;-69
2021/07/22 06:35:49;;;;;;;17.73;14.32;;;;;;;;;;5022466;28;20520;-67
2021/07/22 06:38:14;;;;;;;21.65;14.02;;;;;;;;;;5020424;28;20185;-67
2021/07/22 06:40:41;;;;;;;18.35;13.43;;;;;;;;;;5026792;28;20194;-68
2021/07/22 06:43:08;;;;;;;19.42;13.13;;;;;;;;;;5018073;28;20297;-68
2021/07/22 06:45:33;;;;;;;18.33;13.05;;;;;;;;;;5029939;28;20646;-68
2021/07/22 06:48:01;;;;;;;18.20;12.93;;;;;;;;;;5019892;28;20185;-68
2021/07/22 06:50:27;;;;;;;18.00;12.60;;;;;;;;;;5017922;28;20191;-68
2021/07/22 06:52:52;;;;;;;18.05;13.27;;;;;;;;;;5018452;28;20233;-68
2021/07/22 06:55:17;;;;;;;16.65;13.23;;;;;;;;;;5020551;28;20194;-67
2021/07/22 06:57:43;;;;;;;19.27;13.10;;;;;;;;;;5017677;28;20190;-67
2021/07/22 07:00:09;;;;;;;20.75;13.18;;;;;;;;;;5024814;28;20569;-67
2021/07/22 07:02:34;;;;;;;19.25;12.55;;;;;;;;;;5016099;28;20201;-69
2021/07/22 07:04:59;;;;;;;16.27;12.40;;;;;;;;;;5018906;28;20189;-67
2021/07/22 07:07:25;;;;;;;18.95;11.60;;;;;;;;;;5027968;28;20276;-68
2021/07/22 07:09:52;;;;;;;13.35;11.02;;;;;;;;;;5023936;28;20187;-68
2021/07/22 07:12:17;;;;;;;16.17;10.52;;;;;;;;;;5023964;28;20276;-68
2021/07/22 07:14:43;;;;;;;15.90;11.27;;;;;;;;;;5015908;28;20301;-68
2021/07/22 07:17:08;;;;;;;15.90;10.80;;;;;;;;;;5027238;28;20230;-69
2021/07/22 07:19:34;;;;;;;13.65;10.05;;;;;;;;;;5018484;28;20642;-69
2021/07/22 07:21:59;;;;;;;13.60;11.23;;;;;;;;;;5016414;28;20686;-68
2021/07/22 07:24:24;;;;;;;13.65;11.20;;;;;;;;;;5016372;28;20210;-68
2021/07/22 07:26:50;;;;;;;13.27;10.77;;;;;;;;;;5028383;28;20190;-68
2021/07/22 07:29:15;;;;;;;16.30;11.38;;;;;;;;;;5014304;28;20271;-68
2021/07/22 07:31:40;;;;;;;15.98;11.20;;;;;;;;;;5034025;28;20299;-69
2021/07/22 07:34:06;;;;;;;16.55;11.30;;;;;;;;;;5017751;28;20673;-68
2021/07/22 07:36:32;;;;;;;13.93;10.68;;;;;;;;;;5020863;28;20186;-68
2021/07/22 07:38:57;;;;;;;14.35;10.20;;;;;;;;;;5024023;28;20189;-69
2021/07/22 07:41:22;;;;;;;12.90;10.82;;;;;;;;;;5017122;28;20584;-67
2021/07/22 07:43:48;;;;;;;15.93;10.88;;;;;;;;;;5027738;28;20279;-68
2021/07/22 07:46:13;;;;;;;17.15;11.10;;;;;;;;;;5014377;28;20182;-68
2021/07/22 07:48:38;;;;;;;14.80;10.70;;;;;;;;;;5019494;28;20212;-68
2021/07/22 07:51:08;;;;;;;15.80;10.82;;;;;;;;;;5022689;28;20185;-68
2021/07/22 07:53:33;;;;;;;16.35;10.82;;;;;;;;;;5021890;28;20221;-68
2021/07/22 07:55:59;;;;;;;16.67;10.27;;;;;;;;;;5017557;28;20189;-67
2021/07/22 07:58:24;;;;;;;14.65;10.45;;;;;;;;;;5020124;28;20221;-69
2021/07/22 08:00:49;;;;;;;16.33;10.95;;;;;;;;;;5019534;28;20301;-67
2021/07/22 08:03:17;;;;;;;16.70;11.82;;;;;;;;;;5020915;28;20214;-68
2021/07/22 08:05:43;;;;;;;19.95;11.18;;;;;;;;;;5020171;28;20189;-68
2021/07/22 08:08:08;;;;;;;13.80;10.60;;;;;;;;;;5025708;28;20189;-68
2021/07/22 08:10:33;;;;;;;15.93;10.50;;;;;;;;;;5022132;28;20183;-69
2021/07/22 08:13:04;;;;;;;16.65;11.75;;;;;;;;;;5016817;28;20190;-70
2021/07/22 08:15:29;;;;;;;14.50;10.45;;;;;;;;;;5022165;28;20213;-69
2021/07/22 08:17:54;;;;;;;15.02;10.73;;;;;;;;;;5018682;28;20615;-70
2021/07/22 08:20:20;;;;;;;14.23;11.02;;;;;;;;;;5022903;28;20206;-69
2021/07/22 08:22:45;;;;;;;14.85;10.23;;;;;;;;;;5014446;28;20241;-69
2021/07/22 08:25:11;;;;;;;15.52;10.45;;;;;;;;;;5022738;28;20182;-68
2021/07/22 08:27:37;;;;;;;16.55;10.95;;;;;;;;;;5010734;28;20261;-68
2021/07/22 08:30:03;;;;;;;15.52;9.88;;;;;;;;;;5026103;28;20186;-68
2021/07/22 08:32:29;;;;;;;13.63;10.18;;;;;;;;;;5016697;28;20196;-68
2021/07/22 08:34:54;;;;;;;15.65;10.20;;;;;;;;;;5052899;28;22611;-69
2021/07/22 08:37:19;;;;;;;12.32;9.98;;;;;;;;;;5017557;28;20189;-69
2021/07/22 08:39:46;;;;;;;13.40;10.25;;;;;;;;;;5019757;28;20170;-70
2021/07/22 08:42:12;;;;;;;12.88;10.13;;;;;;;;;;5025937;28;20662;-68
2021/07/22 08:44:42;;;;;;;14.20;10.38;;;;;;;;;;5014488;28;20569;-69
2021/07/22 08:47:09;;;;;;;16.77;10.45;;;;;;;;;;5017691;28;20193;-71
2021/07/22 08:49:37;;;;;;;14.82;10.65;;;;;;;;;;5018848;28;20193;-69
2021/07/22 08:52:10;;;;;;;13.57;10.57;;;;;;;;;;5018569;28;20197;-69
2021/07/22 08:54:37;;;;;;;14.50;10.07;;;;;;;;;;5017191;28;20795;-68
2021/07/22 08:57:06;;;;;;;11.02;9.27;;;;;;;;;;5021013;28;20182;-70
2021/07/22 08:59:32;;;;;;;13.73;10.02;;;;;;;;;;5016782;28;20304;-68
2021/07/22 09:01:59;;;;;;;13.00;10.23;;;;;;;;;;5021310;28;20241;-69
2021/07/22 09:04:25;;;;;;;17.17;11.40;;;;;;;;;;5020732;28;20480;-68
2021/07/22 09:06:50;;;;;;;13.45;10.82;;;;;;;;;;5019516;28;20277;-68
2021/07/22 09:09:17;;;;;;;14.50;10.80;;;;;;;;;;5020677;28;20328;-69
2021/07/22 09:12:08;;;;;;;13.52;10.27;;;;;;;;;;5019226;28;20694;-71
2021/07/22 09:14:35;;;;;;;16.05;9.93;;;;;;;;;;5014128;28;20284;-69
2021/07/22 09:17:01;;;;;;;18.10;12.40;;;;;;;;;;5016080;28;20191;-68
2021/07/22 09:19:35;;;;;;;17.02;11.43;;;;;;;;;;5013120;28;20198;-69
2021/07/22 09:22:02;;;;;;;13.90;10.50;;;;;;;;;;5019842;28;20275;-69
2021/07/22 09:24:27;;;;;;;16.23;11.48;;;;;;;;;;5026014;28;20187;-68
2021/07/22 09:26:53;;;;;;;16.88;11.57;;;;;;;;;;5009131;28;20182;-68
2021/07/22 09:29:19;;;;;;;16.45;12.02;;;;;;;;;;5031474;28;20186;-68
2021/07/22 09:31:45;;;;;;;14.32;10.43;;;;;;;;;;5012808;28;20182;-68
2021/07/22 09:34:23;;;;;;;15.32;10.38;;;;;;;;;;5015710;28;20183;-68
2021/07/22 09:36:48;;;;;;;14.93;10.43;;;;;;;;;;5019465;28;20244;-68
2021/07/22 09:39:25;;;;;;;16.17;11.07;;;;;;;;;;5018094;28;20714;-69
2021/07/22 09:42:03;;;;;;;14.63;10.20;;;;;;;;;;5020272;28;20185;-68
2021/07/22 09:44:39;;;;;;;12.05;9.32;;;;;;;;;;5021299;28;20201;-68
2021/07/22 09:47:09;;;;;;;13.05;9.18;;;;;;;;;;5016982;28;20250;-68
2021/07/22 09:49:41;;;;;;;15.05;10.32;;;;;;;;;;5027847;28;20178;-68
2021/07/22 09:52:18;;;;;;;13.85;9.32;;;;;;;;;;5018103;28;20286;-70
2021/07/22 09:54:44;;;;;;;11.48;9.05;;;;;;;;;;5025251;28;20284;-67
2021/07/22 09:57:17;;;;;;;14.32;9.02;;;;;;;;;;5018061;28;20272;-68
2021/07/22 09:59:44;;;;;;;13.50;10.05;;;;;;;;;;5023613;28;20214;-67
2021/07/22 10:02:30;;;;;;;15.00;9.63;;;;;;;;;;5017748;28;20190;-69
2021/07/22 10:05:06;;;;;;;17.77;9.93;;;;;;;;;;5022842;28;20561;-68
2021/07/22 10:07:35;;;;;;;18.13;9.57;;;;;;;;;;5020547;28;20193;-67
2021/07/22 10:10:02;;;;;;;14.63;8.63;;;;;;;;;;5024396;28;20221;-71
2021/07/22 10:12:29;;;;;;;10.60;8.45;;;;;;;;;;5016834;28;20263;-70
2021/07/22 10:15:00;;;;;;;13.15;7.88;;;;;;;;;;5020797;28;20266;-68
2021/07/22 10:17:34;;;;;;;13.27;8.68;;;;;;;;;;5018024;28;20175;-69
2021/07/22 10:20:03;;;;;;;14.55;8.48;;;;;;;;;;5025412;28;20646;-68
2021/07/22 10:22:29;;;;;;;11.15;9.32;;;;;;;;;;5026001;28;20511;-67
2021/07/22 10:24:55;;;;;;;16.92;10.68;;;;;;;;;;5014582;28;20190;-69
2021/07/22 10:27:24;;;;;;;15.23;9.65;;;;;;;;;;5030496;28;20236;-69
2021/07/22 10:29:51;;;;;;;10.55;8.98;;;;;;;;;;5044506;28;20185;-69
2021/07/22 10:32:27;;;;;;;16.13;9.65;;;;;;;;;;5022923;28;20197;-71
2021/07/22 10:34:54;;;;;;;14.23;10.02;;;;;;;;;;5016976;28;20192;-71
2021/07/22 10:37:20;;;;;;;11.60;8.63;;;;;;;;;;5015872;28;20726;-69
2021/07/22 10:40:08;;;;;;;13.68;8.98;;;;;;;;;;5014546;28;20637;-72
2021/07/22 10:42:50;;;;;;;10.63;8.13;;;;;;;;;;5022149;28;20264;-69
2021/07/22 10:45:18;;;;;;;9.13;7.07;;;;;;;;;;5019312;28;20568;-68
2021/07/22 10:47:58;;;;;;;10.98;7.43;;;;;;;;;;5023749;28;20224;-67
2021/07/22 10:50:59;;;;;;;9.55;7.90;;;;;;;;;;5019626;28;20208;-68
2021/07/22 10:53:48;;;;;;;9.75;7.10;;;;;;;;;;5025412;28;20226;-68
2021/07/22 10:56:22;;;;;;;10.55;7.40;;;;;;;;;;5020281;28;20289;-70
2021/07/22 10:58:55;;;;;;;9.95;7.05;;;;;;;;;;5020823;28;20197;-69
2021/07/22 11:01:48;;;;;;;11.02;7.22;;;;;;;;;;5008812;28;20198;-68
2021/07/22 11:04:22;;;;;;;10.27;6.90;;;;;;;;;;5021388;28;20280;-68
2021/07/22 11:07:00;;;;;;;10.57;6.90;;;;;;;;;;5016190;28;20193;-70
2021/07/22 11:09:52;;;;;;;11.07;7.28;;;;;;;;;;5022905;28;20551;-70
2021/07/22 11:12:37;;;;;;;10.20;6.90;;;;;;;;;;5014688;28;20202;-69
2021/07/22 11:15:07;;;;;;;7.75;6.72;;;;;;;;;;5018505;28;20194;-70
2021/07/22 11:17:33;;;;;;;12.63;7.20;;;;;;;;;;5011984;28;20288;-69
2021/07/22 11:20:17;;;;;;;9.80;7.00;;;;;;;;;;5025699;28;20174;-68
2021/07/22 11:22:44;;;;;;;9.48;7.07;;;;;;;;;;5015189;28;20194;-68
2021/07/22 11:25:10;;;;;;;9.82;6.50;;;;;;;;;;5027652;28;20181;-69
2021/07/22 11:27:45;;;;;;;10.20;6.60;;;;;;;;;;5014412;28;20193;-69
2021/07/22 11:30:12;;;;;;;9.65;7.07;;;;;;;;;;5021714;28;20182;-71
2021/07/22 11:32:37;;;;;;;11.55;7.30;;;;;;;;;;5017321;28;20189;-67
2021/07/22 11:35:03;;;;;;;7.10;6.18;;;;;;;;;;5022905;28;20541;-68
2021/07/22 11:37:28;;;;;;;8.90;6.45;;;;;;;;;;5012895;28;20221;-69
2021/07/22 11:39:55;;;;;;;9.02;6.40;;;;;;;;;;5030842;28;20608;-70
2021/07/22 11:42:21;;;;;;;8.18;6.57;;;;;;;;;;5013915;28;20195;-68
2021/07/22 11:45:01;;;;;;;9.68;6.70;;;;;;;;;;5019812;28;20573;-69
2021/07/22 11:47:30;;;;;;;8.10;6.70;;;;;;;;;;5015711;28;20197;-68
2021/07/22 11:49:56;;;;;;;9.43;6.82;;;;;;;;;;5026780;28;20194;-68
2021/07/22 11:52:28;;;;;;;9.15;7.15;;;;;;;;;;5013966;28;20173;-70
2021/07/22 11:55:25;;;;;;;10.80;6.78;;;;;;;;;;5018162;28;20190;-69
2021/07/22 11:57:51;;;;;;;10.05;6.75;;;;;;;;;;5029987;28;20221;-69
2021/07/22 12:00:19;;;;;;;8.73;6.40;;;;;;;;;;5023476;28;20198;-69
2021/07/22 12:02:51;;;;;;;8.05;6.30;;;;;;;;;;5013721;28;20672;-69
2021/07/22 12:05:23;;;;;;;9.27;5.95;;;;;;;;;;5021029;28;20191;-69
2021/07/22 12:07:49;;;;;;;9.57;6.28;;;;;;;;;;5019066;28;20209;-69
2021/07/22 12:10:24;;;;;;;8.98;6.30;;;;;;;;;;5013826;28;20307;-69
2021/07/22 12:13:03;;;;;;;7.05;6.35;;;;;;;;;;5026354;28;20212;-70
2021/07/22 12:15:29;;;;;;;8.27;6.53;;;;;;;;;;5014635;28;20190;-69
2021/07/22 12:17:55;;;;;;;10.65;6.30;;;;;;;;;;5021756;28;20300;-69
2021/07/22 12:20:20;;;;;;;7.55;6.53;;;;;;;;;;5010685;28;20269;-69
2021/07/22 12:22:45;;;;;;;8.48;6.32;;;;;;;;;;5028841;28;20220;-70
2021/07/22 12:25:13;;;;;;;8.57;6.32;;;;;;;;;;5012738;28;20222;-69
2021/07/22 12:27:40;;;;;;;10.48;6.75;;;;;;;;;;5020103;28;20642;-69
2021/07/22 12:30:07;;;;;;;8.05;6.07;;;;;;;;;;5012082;28;20551;-69
2021/07/22 12:32:35;;;;;;;6.68;6.00;;;;;;;;;;5026711;28;20180;-69
2021/07/22 12:35:01;;;;;;;8.38;6.18;;;;;;;;;;5013109;28;20183;-68
2021/07/22 12:37:59;;;;;;;10.00;6.25;;;;;;;;;;5028276;28;20524;-69
2021/07/22 12:40:56;;;;;;;8.60;6.03;;;;;;;;;;5013783;28;20195;-69
2021/07/22 12:43:23;;;;;;;8.15;6.03;;;;;;;;;;5018950;28;20214;-70
2021/07/22 12:45:52;;;;;;;8.27;6.15;;;;;;;;;;5012185;28;20191;-69
2021/07/22 12:48:18;;;;;;;6.95;5.63;;;;;;;;;;5022639;28;20193;-70
2021/07/22 12:50:47;;;;;;;8.20;6.25;;;;;;;;;;5018085;28;20182;-70
2021/07/22 12:53:30;;;;;;;8.30;6.05;;;;;;;;;;5017288;28;20252;-68
2021/07/22 12:55:58;;;;;;;7.72;5.85;;;;;;;;;;5013743;28;20748;-70
2021/07/22 12:58:27;;;;;;;7.93;5.55;;;;;;;;;;5014013;28;20261;-68
2021/07/22 13:01:02;;;;;;;7.60;5.90;;;;;;;;;;5017546;28;20581;-69
2021/07/22 13:03:31;;;;;;;6.80;5.50;;;;;;;;;;5022934;28;20661;-68
2021/07/22 13:05:57;;;;;;;8.25;6.45;;;;;;;;;;5029236;28;20173;-68
2021/07/22 13:08:22;;;;;;;7.82;5.47;;;;;;;;;;5014500;28;20663;-68
2021/07/22 13:10:48;;;;;;;6.97;5.50;;;;;;;;;;5016196;28;20179;-68
2021/07/22 13:13:13;;;;;;;8.23;5.78;;;;;;;;;;5009136;28;20187;-68
2021/07/22 13:15:39;;;;;;;11.27;5.50;;;;;;;;;;5026058;28;20267;-69
2021/07/22 13:18:04;;;;;;;8.98;5.70;;;;;;;;;;5014538;28;20193;-69
2021/07/22 13:20:29;;;;;;;10.45;6.43;;;;;;;;;;5023515;28;20182;-68
2021/07/22 13:22:55;;;;;;;10.88;6.38;;;;;;;;;;5009185;28;20273;-68
2021/07/22 13:25:20;;;;;;;8.45;5.80;;;;;;;;;;5020321;28;20195;-68
2021/07/22 13:27:45;;;;;;;7.10;5.45;;;;;;;;;;5009026;28;20182;-69
2021/07/22 13:30:13;;;;;;;7.05;5.47;;;;;;;;;;5021864;28;20190;-69
2021/07/22 13:32:40;;;;;;;7.45;5.25;;;;;;;;;;5009892;28;20178;-71
2021/07/22 13:35:08;;;;;;;8.70;5.90;;;;;;;;;;5026868;28;20355;-69
2021/07/22 13:37:34;;;;;;;7.07;5.63;;;;;;;;;;5023069;28;20237;-70
2021/07/22 13:40:00;;;;;;;9.25;5.10;;;;;;;;;;5021174;28;20649;-69
2021/07/22 13:42:26;;;;;;;7.68;5.55;;;;;;;;;;5020713;28;20184;-67
2021/07/22 13:44:52;;;;;;;5.43;4.90;;;;;;;;;;5022008;28;20568;-69
2021/07/22 13:47:17;;;;;;;7.97;5.25;;;;;;;;;;5021260;28;20190;-68
2021/07/22 13:49:43;;;;;;;7.03;4.80;;;;;;;;;;5017307;28;20544;-68
2021/07/22 13:52:09;;;;;;;5.60;4.88;;;;;;;;;;5023690;28;20186;-72
2021/07/22 13:54:34;;;;;;;8.32;5.25;;;;;;;;;;5021453;28;20721;-70
2021/07/22 13:57:00;;;;;;;7.22;4.72;;;;;;;;;;5020769;28;20186;-71
2021/07/22 13:59:25;;;;;;;7.57;4.68;;;;;;;;;;5014864;28;20285;-69
2021/07/22 14:01:51;;;;;;;5.60;4.63;;;;;;;;;;5023086;28;20185;-68
2021/07/22 14:04:16;;;;;;;6.55;4.53;;;;;;;;;;5014580;28;20198;-70
2021/07/22 14:06:42;;;;;;;5.63;4.07;;;;;;;;;;5021507;28;20218;-71
2021/07/22 14:09:07;;;;;;;6.15;5.03;;;;;;;;;;5016274;28;20631;-70
2021/07/22 14:11:33;;;;;;;9.05;5.20;;;;;;;;;;5011822;28;20617;-69
2021/07/22 14:13:59;;;;;;;5.70;4.97;;;;;;;;;;5027756;28;20540;-69
2021/07/22 14:16:24;;;;;;;6.10;4.78;;;;;;;;;;5015135;28;20217;-66
2021/07/22 14:18:50;;;;;;;7.13;4.72;;;;;;;;;;5027107;28;20278;-68
2021/07/22 14:21:16;;;;;;;8.20;5.18;;;;;;;;;;5015289;28;20193;-68
2021/07/22 14:23:41;;;;;;;6.60;4.50;;;;;;;;;;5025849;28;20210;-69
2021/07/22 14:26:07;;;;;;;5.70;4.38;;;;;;;;;;5014332;28;20193;-69